sensor_id;sensor_type;location;lat;lon;timestamp;temperature;humidity
54960;DHT22;40860;51.710;8.736;2023-04-25T00:00:07;6.50;99.90
54960;DHT22;40860;51.710;8.736;2023-04-25T00:04:12;6.60;99.90
54960;DHT22;40860;51.710;8.736;2023-04-25T00:08:16;6.70;99.90
54960;DHT22;40860;51.710;8.736;2023-04-25T00:12:18;6.70;99.90
54960;DHT22;40860;51.710;8.736;2023-04-25T00:16:24;6.70;99.90
54960;DHT22;40860;51.710;8.736;2023-04-25T00:20:28;6.70;99.90
54960;DHT22;40860;51.710;8.736;2023-04-25T00:24:31;6.80;99.90
54960;DHT22;40860;51.710;8.736;2023-04-25T00:28:34;6.80;99.90
54960;DHT22;40860;51.710;8.736;2023-04-25T00:32:38;6.80;99.90
54960;DHT22;40860;51.710;8.736;2023-04-25T00:36:41;6.80;99.90
54960;DHT22;40860;51.710;8.736;2023-04-25T00:40:44;6.80;99.90
54960;DHT22;40860;51.710;8.736;2023-04-25T00:44:47;6.80;99.90
54960;DHT22;40860;51.710;8.736;2023-04-25T00:48:52;6.70;99.90
54960;DHT22;40860;51.710;8.736;2023-04-25T00:52:55;6.70;99.90
54960;DHT22;40860;51.710;8.736;2023-04-25T00:56:58;6.70;99.90
54960;DHT22;40860;51.710;8.736;2023-04-25T01:01:02;6.70;99.90
54960;DHT22;40860;51.710;8.736;2023-04-25T02:09:44;6.40;99.90
54960;DHT22;40860;51.710;8.736;2023-04-25T02:13:47;6.40;99.90
54960;DHT22;40860;51.710;8.736;2023-04-25T02:17:59;6.40;99.90
54960;DHT22;40860;51.710;8.736;2023-04-25T02:22:02;6.40;99.90
54960;DHT22;40860;51.710;8.736;2023-04-25T02:26:06;6.40;99.90
54960;DHT22;40860;51.710;8.736;2023-04-25T02:30:10;6.40;99.90
54960;DHT22;40860;51.710;8.736;2023-04-25T02:34:13;6.40;99.90
54960;DHT22;40860;51.710;8.736;2023-04-25T02:38:16;6.40;99.90
54960;DHT22;40860;51.710;8.736;2023-04-25T02:42:20;6.40;99.90
54960;DHT22;40860;51.710;8.736;2023-04-25T02:46:24;6.40;99.90
54960;DHT22;40860;51.710;8.736;2023-04-25T02:50:40;6.30;99.90
54960;DHT22;40860;51.710;8.736;2023-04-25T02:54:43;6.30;99.90
54960;DHT22;40860;51.710;8.736;2023-04-25T02:58:47;6.30;99.90
54960;DHT22;40860;51.710;8.736;2023-04-25T03:02:51;6.30;99.90
54960;DHT22;40860;51.710;8.736;2023-04-25T03:06:55;6.20;99.90
54960;DHT22;40860;51.710;8.736;2023-04-25T03:10:58;6.30;99.90
54960;DHT22;40860;51.710;8.736;2023-04-25T03:15:06;6.20;99.90
54960;DHT22;40860;51.710;8.736;2023-04-25T03:19:12;6.20;99.90
54960;DHT22;40860;51.710;8.736;2023-04-25T03:23:17;6.30;99.90
54960;DHT22;40860;51.710;8.736;2023-04-25T03:27:27;6.30;99.90
54960;DHT22;40860;51.710;8.736;2023-04-25T03:31:38;6.30;99.90
54960;DHT22;40860;51.710;8.736;2023-04-25T03:35:41;6.20;99.90
54960;DHT22;40860;51.710;8.736;2023-04-25T03:39:45;6.20;99.90
54960;DHT22;40860;51.710;8.736;2023-04-25T03:43:50;6.30;99.90
54960;DHT22;40860;51.710;8.736;2023-04-25T03:48:09;6.20;99.90
54960;DHT22;40860;51.710;8.736;2023-04-25T03:52:13;6.20;99.90
54960;DHT22;40860;51.710;8.736;2023-04-25T03:56:28;6.30;99.90
54960;DHT22;40860;51.710;8.736;2023-04-25T04:00:37;6.20;99.90
54960;DHT22;40860;51.710;8.736;2023-04-25T04:04:45;6.20;99.90
54960;DHT22;40860;51.710;8.736;2023-04-25T04:08:49;6.30;99.90
54960;DHT22;40860;51.710;8.736;2023-04-25T04:12:52;6.30;99.90
54960;DHT22;40860;51.710;8.736;2023-04-25T04:17:01;6.30;99.90
54960;DHT22;40860;51.710;8.736;2023-04-25T04:21:06;6.30;99.90
54960;DHT22;40860;51.710;8.736;2023-04-25T04:25:15;6.40;99.90
54960;DHT22;40860;51.710;8.736;2023-04-25T04:29:41;6.40;99.90
54960;DHT22;40860;51.710;8.736;2023-04-25T04:33:59;6.40;99.90
54960;DHT22;40860;51.710;8.736;2023-04-25T04:38:05;6.40;99.90
54960;DHT22;40860;51.710;8.736;2023-04-25T04:42:10;6.40;99.90
54960;DHT22;40860;51.710;8.736;2023-04-25T04:46:29;6.40;99.90
54960;DHT22;40860;51.710;8.736;2023-04-25T04:51:05;6.40;99.90
54960;DHT22;40860;51.710;8.736;2023-04-25T04:55:44;6.40;99.90
54960;DHT22;40860;51.710;8.736;2023-04-25T05:00:07;6.40;99.90
54960;DHT22;40860;51.710;8.736;2023-04-25T05:04:44;6.50;99.90
54960;DHT22;40860;51.710;8.736;2023-04-25T05:09:05;6.50;99.90
54960;DHT22;40860;51.710;8.736;2023-04-25T05:13:45;6.50;99.90
54960;DHT22;40860;51.710;8.736;2023-04-25T05:18:06;6.50;99.90
54960;DHT22;40860;51.710;8.736;2023-04-25T05:22:19;6.60;99.90
54960;DHT22;40860;51.710;8.736;2023-04-25T05:26:33;6.50;99.90
54960;DHT22;40860;51.710;8.736;2023-04-25T05:30:49;6.50;99.90
54960;DHT22;40860;51.710;8.736;2023-04-25T05:34:55;6.50;99.90
54960;DHT22;40860;51.710;8.736;2023-04-25T05:39:03;6.50;99.90
54960;DHT22;40860;51.710;8.736;2023-04-25T05:43:38;6.50;99.90
54960;DHT22;40860;51.710;8.736;2023-04-25T05:48:08;6.50;99.90
54960;DHT22;40860;51.710;8.736;2023-04-25T05:52:32;6.50;99.90
54960;DHT22;40860;51.710;8.736;2023-04-25T05:56:39;6.60;99.90
54960;DHT22;40860;51.710;8.736;2023-04-25T06:00:42;6.60;99.90
54960;DHT22;40860;51.710;8.736;2023-04-25T06:04:50;6.60;99.90
54960;DHT22;40860;51.710;8.736;2023-04-25T06:08:54;6.60;99.90
54960;DHT22;40860;51.710;8.736;2023-04-25T06:12:57;6.70;99.90
54960;DHT22;40860;51.710;8.736;2023-04-25T06:17:01;6.70;99.90
54960;DHT22;40860;51.710;8.736;2023-04-25T06:21:09;6.70;99.90
54960;DHT22;40860;51.710;8.736;2023-04-25T06:25:13;6.90;99.90
54960;DHT22;40860;51.710;8.736;2023-04-25T06:29:16;7.00;99.90
54960;DHT22;40860;51.710;8.736;2023-04-25T06:33:19;7.00;99.90
54960;DHT22;40860;51.710;8.736;2023-04-25T06:37:25;7.10;99.90
54960;DHT22;40860;51.710;8.736;2023-04-25T06:41:28;7.20;99.90
54960;DHT22;40860;51.710;8.736;2023-04-25T06:45:35;7.20;99.90
54960;DHT22;40860;51.710;8.736;2023-04-25T06:49:38;7.20;99.90
54960;DHT22;40860;51.710;8.736;2023-04-25T06:53:45;7.20;99.90
54960;DHT22;40860;51.710;8.736;2023-04-25T06:57:58;7.30;99.90
54960;DHT22;40860;51.710;8.736;2023-04-25T07:02:28;7.30;99.90
54960;DHT22;40860;51.710;8.736;2023-04-25T07:06:32;7.50;99.90
54960;DHT22;40860;51.710;8.736;2023-04-25T07:10:36;7.40;99.90
54960;DHT22;40860;51.710;8.736;2023-04-25T07:14:39;7.50;99.90
54960;DHT22;40860;51.710;8.736;2023-04-25T07:18:43;7.50;99.90
54960;DHT22;40860;51.710;8.736;2023-04-25T07:22:47;7.50;99.90
54960;DHT22;40860;51.710;8.736;2023-04-25T07:26:51;7.60;99.90
54960;DHT22;40860;51.710;8.736;2023-04-25T07:31:00;7.70;99.90
54960;DHT22;40860;51.710;8.736;2023-04-25T07:35:06;7.80;99.60
54960;DHT22;40860;51.710;8.736;2023-04-25T07:39:10;7.80;99.40
54960;DHT22;40860;51.710;8.736;2023-04-25T07:43:15;8.00;98.70
54960;DHT22;40860;51.710;8.736;2023-04-25T07:47:31;8.20;98.50
54960;DHT22;40860;51.710;8.736;2023-04-25T07:51:34;8.30;97.30
54960;DHT22;40860;51.710;8.736;2023-04-25T07:55:43;8.40;97.50
54960;DHT22;40860;51.710;8.736;2023-04-25T07:59:51;8.40;96.70
54960;DHT22;40860;51.710;8.736;2023-04-25T08:03:55;8.50;96.80
54960;DHT22;40860;51.710;8.736;2023-04-25T08:08:08;8.60;95.30
54960;DHT22;40860;51.710;8.736;2023-04-25T08:12:11;9.00;95.30
54960;DHT22;40860;51.710;8.736;2023-04-25T08:16:16;9.30;94.10
54960;DHT22;40860;51.710;8.736;2023-04-25T08:20:20;9.30;93.10
54960;DHT22;40860;51.710;8.736;2023-04-25T08:24:25;9.30;92.70
54960;DHT22;40860;51.710;8.736;2023-04-25T08:32:39;9.80;90.40
54960;DHT22;40860;51.710;8.736;2023-04-25T08:37:14;9.70;88.80
54960;DHT22;40860;51.710;8.736;2023-04-25T08:41:25;9.80;89.80
54960;DHT22;40860;51.710;8.736;2023-04-25T08:45:31;10.30;89.00
54960;DHT22;40860;51.710;8.736;2023-04-25T08:49:40;10.30;84.00
54960;DHT22;40860;51.710;8.736;2023-04-25T08:53:48;10.30;83.60
54960;DHT22;40860;51.710;8.736;2023-04-25T08:58:13;10.40;81.80
54960;DHT22;40860;51.710;8.736;2023-04-25T09:02:17;10.50;82.20
54960;DHT22;40860;51.710;8.736;2023-04-25T09:06:27;10.70;82.30
54960;DHT22;40860;51.710;8.736;2023-04-25T09:10:37;10.90;81.70
54960;DHT22;40860;51.710;8.736;2023-04-25T09:14:42;10.70;76.30
54960;DHT22;40860;51.710;8.736;2023-04-25T09:19:00;10.70;78.60
54960;DHT22;40860;51.710;8.736;2023-04-25T09:23:05;10.70;75.40
54960;DHT22;40860;51.710;8.736;2023-04-25T09:27:17;11.00;72.30
54960;DHT22;40860;51.710;8.736;2023-04-25T09:31:24;11.20;69.90
54960;DHT22;40860;51.710;8.736;2023-04-25T09:35:37;11.40;70.80
54960;DHT22;40860;51.710;8.736;2023-04-25T09:39:49;11.50;72.40
54960;DHT22;40860;51.710;8.736;2023-04-25T09:43:56;11.40;68.70
54960;DHT22;40860;51.710;8.736;2023-04-25T09:48:09;11.10;68.90
54960;DHT22;40860;51.710;8.736;2023-04-25T09:52:19;10.70;69.10
54960;DHT22;40860;51.710;8.736;2023-04-25T09:56:51;10.60;71.90
54960;DHT22;40860;51.710;8.736;2023-04-25T10:01:00;11.70;71.80
54960;DHT22;40860;51.710;8.736;2023-04-25T10:05:14;12.30;67.40
54960;DHT22;40860;51.710;8.736;2023-04-25T10:09:20;12.20;65.10
54960;DHT22;40860;51.710;8.736;2023-04-25T10:13:31;11.50;64.20
54960;DHT22;40860;51.710;8.736;2023-04-25T10:17:36;11.10;65.70
54960;DHT22;40860;51.710;8.736;2023-04-25T10:21:48;10.90;67.10
54960;DHT22;40860;51.710;8.736;2023-04-25T10:25:55;10.80;68.60
54960;DHT22;40860;51.710;8.736;2023-04-25T10:30:06;10.80;68.40
54960;DHT22;40860;51.710;8.736;2023-04-25T10:38:19;10.90;68.60
54960;DHT22;40860;51.710;8.736;2023-04-25T10:42:25;11.50;68.90
54960;DHT22;40860;51.710;8.736;2023-04-25T10:46:35;11.40;64.40
54960;DHT22;40860;51.710;8.736;2023-04-25T10:50:39;11.30;65.60
54960;DHT22;40860;51.710;8.736;2023-04-25T10:55:22;11.20;64.60
54960;DHT22;40860;51.710;8.736;2023-04-25T11:00:28;11.00;63.00
54960;DHT22;40860;51.710;8.736;2023-04-25T11:05:19;10.60;64.00
54960;DHT22;40860;51.710;8.736;2023-04-25T11:09:49;10.40;66.10
54960;DHT22;40860;51.710;8.736;2023-04-25T11:14:45;10.40;68.40
54960;DHT22;40860;51.710;8.736;2023-04-25T11:19:34;10.40;68.90
54960;DHT22;40860;51.710;8.736;2023-04-25T11:29:51;10.40;68.00
54960;DHT22;40860;51.710;8.736;2023-04-25T11:33:54;10.90;67.00
54960;DHT22;40860;51.710;8.736;2023-04-25T11:37:59;11.00;67.70
54960;DHT22;40860;51.710;8.736;2023-04-25T11:42:04;11.50;65.10
54960;DHT22;40860;51.710;8.736;2023-04-25T11:46:11;11.70;63.30
54960;DHT22;40860;51.710;8.736;2023-04-25T11:50:14;12.00;61.30
54960;DHT22;40860;51.710;8.736;2023-04-25T11:54:17;12.20;60.50
54960;DHT22;40860;51.710;8.736;2023-04-25T11:58:20;12.10;59.50
54960;DHT22;40860;51.710;8.736;2023-04-25T12:02:27;12.10;58.90
54960;DHT22;40860;51.710;8.736;2023-04-25T12:06:30;12.30;59.10
54960;DHT22;40860;51.710;8.736;2023-04-25T12:10:37;11.80;57.00
54960;DHT22;40860;51.710;8.736;2023-04-25T12:19:13;11.10;59.80
54960;DHT22;40860;51.710;8.736;2023-04-25T12:23:16;10.90;60.60
54960;DHT22;40860;51.710;8.736;2023-04-25T12:27:20;10.90;59.50
54960;DHT22;40860;51.710;8.736;2023-04-25T12:31:22;11.00;59.90
54960;DHT22;40860;51.710;8.736;2023-04-25T12:35:26;11.20;58.70
54960;DHT22;40860;51.710;8.736;2023-04-25T12:39:29;11.20;60.20
54960;DHT22;40860;51.710;8.736;2023-04-25T12:43:32;11.20;60.00
54960;DHT22;40860;51.710;8.736;2023-04-25T12:47:35;11.10;59.70
54960;DHT22;40860;51.710;8.736;2023-04-25T12:51:40;11.10;60.90
54960;DHT22;40860;51.710;8.736;2023-04-25T12:55:43;11.10;59.80
54960;DHT22;40860;51.710;8.736;2023-04-25T12:59:47;11.50;61.60
54960;DHT22;40860;51.710;8.736;2023-04-25T13:03:50;11.60;62.40
54960;DHT22;40860;51.710;8.736;2023-04-25T13:07:54;12.20;61.40
54960;DHT22;40860;51.710;8.736;2023-04-25T13:11:57;12.30;58.00
54960;DHT22;40860;51.710;8.736;2023-04-25T13:16:00;12.30;57.70
54960;DHT22;40860;51.710;8.736;2023-04-25T13:20:04;12.20;56.20
54960;DHT22;40860;51.710;8.736;2023-04-25T13:24:11;12.00;57.60
54960;DHT22;40860;51.710;8.736;2023-04-25T13:28:14;12.10;56.80
54960;DHT22;40860;51.710;8.736;2023-04-25T13:32:17;12.30;57.40
54960;DHT22;40860;51.710;8.736;2023-04-25T13:36:20;12.20;56.20
54960;DHT22;40860;51.710;8.736;2023-04-25T13:40:24;12.10;57.90
54960;DHT22;40860;51.710;8.736;2023-04-25T13:44:28;12.20;58.30
54960;DHT22;40860;51.710;8.736;2023-04-25T13:48:31;12.00;57.30
54960;DHT22;40860;51.710;8.736;2023-04-25T13:52:34;11.90;58.80
54960;DHT22;40860;51.710;8.736;2023-04-25T13:56:41;12.20;59.20
54960;DHT22;40860;51.710;8.736;2023-04-25T14:00:44;12.30;57.40
54960;DHT22;40860;51.710;8.736;2023-04-25T14:04:48;12.20;58.00
54960;DHT22;40860;51.710;8.736;2023-04-25T14:08:51;11.90;55.40
54960;DHT22;40860;51.710;8.736;2023-04-25T14:12:55;11.90;55.90
54960;DHT22;40860;51.710;8.736;2023-04-25T14:16:58;12.00;55.80
54960;DHT22;40860;51.710;8.736;2023-04-25T14:21:00;12.30;55.30
54960;DHT22;40860;51.710;8.736;2023-04-25T14:25:04;12.60;54.00
54960;DHT22;40860;51.710;8.736;2023-04-25T14:29:09;13.00;54.40
54960;DHT22;40860;51.710;8.736;2023-04-25T14:33:13;13.50;54.60
54960;DHT22;40860;51.710;8.736;2023-04-25T14:37:16;13.40;58.10
54960;DHT22;40860;51.710;8.736;2023-04-25T14:41:19;13.10;58.00
54960;DHT22;40860;51.710;8.736;2023-04-25T14:45:24;13.00;58.10
54960;DHT22;40860;51.710;8.736;2023-04-25T14:49:27;12.30;57.60
54960;DHT22;40860;51.710;8.736;2023-04-25T14:53:31;12.00;58.20
54960;DHT22;40860;51.710;8.736;2023-04-25T14:57:34;11.70;58.80
54960;DHT22;40860;51.710;8.736;2023-04-25T15:01:40;11.50;59.80
54960;DHT22;40860;51.710;8.736;2023-04-25T15:05:44;11.30;59.60
54960;DHT22;40860;51.710;8.736;2023-04-25T15:09:47;11.00;60.20
54960;DHT22;40860;51.710;8.736;2023-04-25T15:13:50;10.70;62.40
54960;DHT22;40860;51.710;8.736;2023-04-25T15:17:55;10.40;64.10
54960;DHT22;40860;51.710;8.736;2023-04-25T15:22:00;10.10;66.10
54960;DHT22;40860;51.710;8.736;2023-04-25T15:26:03;10.00;68.50
54960;DHT22;40860;51.710;8.736;2023-04-25T15:30:07;9.90;70.20
54960;DHT22;40860;51.710;8.736;2023-04-25T15:34:13;9.80;71.40
54960;DHT22;40860;51.710;8.736;2023-04-25T15:38:16;9.70;74.10
54960;DHT22;40860;51.710;8.736;2023-04-25T15:42:19;9.70;75.90
54960;DHT22;40860;51.710;8.736;2023-04-25T15:46:22;9.70;75.80
54960;DHT22;40860;51.710;8.736;2023-04-25T15:50:26;10.00;76.50
54960;DHT22;40860;51.710;8.736;2023-04-25T15:54:29;10.80;76.10
54960;DHT22;40860;51.710;8.736;2023-04-25T15:58:31;11.50;70.40
54960;DHT22;40860;51.710;8.736;2023-04-25T16:02:34;12.10;69.60
54960;DHT22;40860;51.710;8.736;2023-04-25T16:06:39;12.70;65.50
54960;DHT22;40860;51.710;8.736;2023-04-25T16:10:43;13.10;61.00
54960;DHT22;40860;51.710;8.736;2023-04-25T16:14:45;13.10;61.00
54960;DHT22;40860;51.710;8.736;2023-04-25T16:18:48;12.90;59.30
54960;DHT22;40860;51.710;8.736;2023-04-25T16:22:53;12.40;58.60
54960;DHT22;40860;51.710;8.736;2023-04-25T16:26:56;12.10;59.50
54960;DHT22;40860;51.710;8.736;2023-04-25T16:30:59;11.80;59.80
54960;DHT22;40860;51.710;8.736;2023-04-25T16:35:02;11.30;61.10
54960;DHT22;40860;51.710;8.736;2023-04-25T16:39:07;11.00;61.80
54960;DHT22;40860;51.710;8.736;2023-04-25T16:43:10;10.70;64.10
54960;DHT22;40860;51.710;8.736;2023-04-25T16:47:13;10.40;66.50
54960;DHT22;40860;51.710;8.736;2023-04-25T16:51:20;10.20;68.70
54960;DHT22;40860;51.710;8.736;2023-04-25T16:55:24;9.70;73.60
54960;DHT22;40860;51.710;8.736;2023-04-25T16:59:27;9.40;77.50
54960;DHT22;40860;51.710;8.736;2023-04-25T17:03:30;9.10;79.80
54960;DHT22;40860;51.710;8.736;2023-04-25T17:07:36;9.00;83.00
54960;DHT22;40860;51.710;8.736;2023-04-25T17:11:40;8.80;85.30
54960;DHT22;40860;51.710;8.736;2023-04-25T17:15:43;8.70;87.70
54960;DHT22;40860;51.710;8.736;2023-04-25T17:19:45;8.60;89.00
54960;DHT22;40860;51.710;8.736;2023-04-25T17:23:49;8.70;90.90
54960;DHT22;40860;51.710;8.736;2023-04-25T17:27:53;8.80;90.40
54960;DHT22;40860;51.710;8.736;2023-04-25T17:31:56;8.80;90.50
54960;DHT22;40860;51.710;8.736;2023-04-25T17:35:59;8.80;91.20
54960;DHT22;40860;51.710;8.736;2023-04-25T17:40:06;8.80;91.30
54960;DHT22;40860;51.710;8.736;2023-04-25T17:44:13;8.80;90.60
54960;DHT22;40860;51.710;8.736;2023-04-25T17:48:16;8.70;91.00
54960;DHT22;40860;51.710;8.736;2023-04-25T17:52:20;8.60;91.30
54960;DHT22;40860;51.710;8.736;2023-04-25T17:56:23;8.50;92.00
54960;DHT22;40860;51.710;8.736;2023-04-25T18:00:29;8.50;92.10
54960;DHT22;40860;51.710;8.736;2023-04-25T18:04:37;8.50;92.20
54960;DHT22;40860;51.710;8.736;2023-04-25T18:08:40;8.50;91.10
54960;DHT22;40860;51.710;8.736;2023-04-25T18:12:43;8.50;91.20
54960;DHT22;40860;51.710;8.736;2023-04-25T18:16:49;8.50;90.80
54960;DHT22;40860;51.710;8.736;2023-04-25T18:20:52;8.30;91.20
54960;DHT22;40860;51.710;8.736;2023-04-25T18:24:55;8.20;91.60
54960;DHT22;40860;51.710;8.736;2023-04-25T18:28:58;8.00;93.30
54960;DHT22;40860;51.710;8.736;2023-04-25T18:33:03;7.80;94.00
54960;DHT22;40860;51.710;8.736;2023-04-25T18:37:06;7.60;94.80
54960;DHT22;40860;51.710;8.736;2023-04-25T18:41:09;7.40;94.90
54960;DHT22;40860;51.710;8.736;2023-04-25T18:45:16;7.30;95.20
54960;DHT22;40860;51.710;8.736;2023-04-25T18:49:21;7.20;95.70
54960;DHT22;40860;51.710;8.736;2023-04-25T18:53:25;7.10;95.70
54960;DHT22;40860;51.710;8.736;2023-04-25T18:57:28;7.10;95.90
54960;DHT22;40860;51.710;8.736;2023-04-25T19:01:31;7.10;95.90
54960;DHT22;40860;51.710;8.736;2023-04-25T19:05:36;7.10;95.90
54960;DHT22;40860;51.710;8.736;2023-04-25T19:09:40;7.00;95.70
54960;DHT22;40860;51.710;8.736;2023-04-25T19:13:43;7.10;96.10
54960;DHT22;40860;51.710;8.736;2023-04-25T19:17:46;7.00;96.50
54960;DHT22;40860;51.710;8.736;2023-04-25T19:21:51;6.70;96.90
54960;DHT22;40860;51.710;8.736;2023-04-25T19:25:54;6.60;97.30
54960;DHT22;40860;51.710;8.736;2023-04-25T19:29:57;6.50;97.20
54960;DHT22;40860;51.710;8.736;2023-04-25T19:34:10;6.40;97.10
54960;DHT22;40860;51.710;8.736;2023-04-25T19:38:22;6.20;97.40
54960;DHT22;40860;51.710;8.736;2023-04-25T19:42:25;6.10;97.70
54960;DHT22;40860;51.710;8.736;2023-04-25T19:46:28;6.10;97.40
54960;DHT22;40860;51.710;8.736;2023-04-25T19:50:31;6.20;96.60
54960;DHT22;40860;51.710;8.736;2023-04-25T19:54:36;6.30;95.60
54960;DHT22;40860;51.710;8.736;2023-04-25T19:58:39;6.30;94.80
54960;DHT22;40860;51.710;8.736;2023-04-25T20:02:58;6.40;94.20
54960;DHT22;40860;51.710;8.736;2023-04-25T20:07:02;6.40;93.90
54960;DHT22;40860;51.710;8.736;2023-04-25T20:11:20;6.40;93.80
54960;DHT22;40860;51.710;8.736;2023-04-25T20:15:24;6.40;93.30
54960;DHT22;40860;51.710;8.736;2023-04-25T20:19:26;6.40;93.30
54960;DHT22;40860;51.710;8.736;2023-04-25T20:23:29;6.20;93.10
54960;DHT22;40860;51.710;8.736;2023-04-25T20:27:33;6.20;92.80
54960;DHT22;40860;51.710;8.736;2023-04-25T20:31:38;6.10;92.60
54960;DHT22;40860;51.710;8.736;2023-04-25T20:35:41;6.10;92.70
54960;DHT22;40860;51.710;8.736;2023-04-25T20:39:44;6.10;92.80
54960;DHT22;40860;51.710;8.736;2023-04-25T20:43:48;6.00;92.80
54960;DHT22;40860;51.710;8.736;2023-04-25T20:47:53;6.00;92.90
54960;DHT22;40860;51.710;8.736;2023-04-25T20:51:56;6.00;93.00
54960;DHT22;40860;51.710;8.736;2023-04-25T20:55:59;5.90;93.30
54960;DHT22;40860;51.710;8.736;2023-04-25T21:00:07;5.80;93.60
54960;DHT22;40860;51.710;8.736;2023-04-25T21:04:24;5.70;93.80
54960;DHT22;40860;51.710;8.736;2023-04-25T21:08:30;5.80;94.10
54960;DHT22;40860;51.710;8.736;2023-04-25T21:12:33;5.70;94.40
54960;DHT22;40860;51.710;8.736;2023-04-25T21:16:47;5.70;94.10
54960;DHT22;40860;51.710;8.736;2023-04-25T21:20:50;5.70;94.30
54960;DHT22;40860;51.710;8.736;2023-04-25T21:24:53;5.60;94.20
54960;DHT22;40860;51.710;8.736;2023-04-25T21:28:58;5.60;94.30
54960;DHT22;40860;51.710;8.736;2023-04-25T21:33:02;5.60;94.30
54960;DHT22;40860;51.710;8.736;2023-04-25T21:37:05;5.50;94.60
54960;DHT22;40860;51.710;8.736;2023-04-25T21:41:08;5.40;94.70
54960;DHT22;40860;51.710;8.736;2023-04-25T21:45:11;5.40;94.80
54960;DHT22;40860;51.710;8.736;2023-04-25T21:49:15;5.30;95.10
54960;DHT22;40860;51.710;8.736;2023-04-25T21:53:18;5.30;95.20
54960;DHT22;40860;51.710;8.736;2023-04-25T21:57:20;5.20;95.70
54960;DHT22;40860;51.710;8.736;2023-04-25T22:01:24;5.10;96.00
54960;DHT22;40860;51.710;8.736;2023-04-25T22:05:28;5.00;96.40
54960;DHT22;40860;51.710;8.736;2023-04-25T22:09:31;4.90;96.80
54960;DHT22;40860;51.710;8.736;2023-04-25T22:13:52;4.90;97.00
54960;DHT22;40860;51.710;8.736;2023-04-25T22:17:55;4.90;97.30
54960;DHT22;40860;51.710;8.736;2023-04-25T22:21:59;4.80;97.30
54960;DHT22;40860;51.710;8.736;2023-04-25T22:26:03;4.80;97.30
54960;DHT22;40860;51.710;8.736;2023-04-25T22:30:07;4.70;97.40
54960;DHT22;40860;51.710;8.736;2023-04-25T22:34:10;4.60;97.50
54960;DHT22;40860;51.710;8.736;2023-04-25T22:38:15;4.60;97.70
54960;DHT22;40860;51.710;8.736;2023-04-25T22:42:18;4.50;97.70
54960;DHT22;40860;51.710;8.736;2023-04-25T22:46:21;4.50;97.80
54960;DHT22;40860;51.710;8.736;2023-04-25T22:50:24;4.40;98.00
54960;DHT22;40860;51.710;8.736;2023-04-25T22:54:29;4.30;98.30
54960;DHT22;40860;51.710;8.736;2023-04-25T22:58:31;4.30;98.40
54960;DHT22;40860;51.710;8.736;2023-04-25T23:02:34;4.20;98.60
54960;DHT22;40860;51.710;8.736;2023-04-25T23:06:37;4.20;98.70
54960;DHT22;40860;51.710;8.736;2023-04-25T23:10:42;4.30;98.90
54960;DHT22;40860;51.710;8.736;2023-04-25T23:14:48;4.40;98.80
54960;DHT22;40860;51.710;8.736;2023-04-25T23:18:50;4.50;98.40
54960;DHT22;40860;51.710;8.736;2023-04-25T23:22:54;4.50;98.30
54960;DHT22;40860;51.710;8.736;2023-04-25T23:26:58;4.60;98.00
54960;DHT22;40860;51.710;8.736;2023-04-25T23:31:03;4.60;98.10
54960;DHT22;40860;51.710;8.736;2023-04-25T23:35:07;4.50;98.10
54960;DHT22;40860;51.710;8.736;2023-04-25T23:39:10;4.50;98.00
54960;DHT22;40860;51.710;8.736;2023-04-25T23:43:16;4.40;97.90
54960;DHT22;40860;51.710;8.736;2023-04-25T23:47:34;4.30;98.00
54960;DHT22;40860;51.710;8.736;2023-04-25T23:51:38;4.30;97.90
54960;DHT22;40860;51.710;8.736;2023-04-25T23:55:41;4.20;98.10
54960;DHT22;40860;51.710;8.736;2023-04-25T23:59:46;4.10;98.10
